createdAt,value
2022-11-18T00:07:48.877Z,86.04
2022-11-18T00:17:56.407Z,86.41
2022-11-18T00:28:03.316Z,86.40
2022-11-18T00:38:10.648Z,86.11
2022-11-18T00:48:17.270Z,86.43
2022-11-18T00:58:24.393Z,86.31
2022-11-18T01:08:31.379Z,86.24
2022-11-18T01:18:38.639Z,86.38
2022-11-18T01:28:46.591Z,86.47
2022-11-18T01:38:55.120Z,86.23
2022-11-18T01:49:06.800Z,86.34
2022-11-18T01:59:16.718Z,86.41
2022-11-18T02:09:24.655Z,86.60
2022-11-18T02:19:50.608Z,86.52
2022-11-18T02:30:00.975Z,86.60
2022-11-18T02:40:06.463Z,86.66
2022-11-18T02:50:14.094Z,86.83
2022-11-18T03:00:21.727Z,86.74
2022-11-18T03:10:34.504Z,86.77
2022-11-18T03:20:42.506Z,86.99
2022-11-18T03:30:56.068Z,87.21
2022-11-18T03:41:08.065Z,87.05
2022-11-18T03:51:17.077Z,86.96
2022-11-18T04:01:26.576Z,87.15
2022-11-18T04:11:48.804Z,87.22
2022-11-18T04:21:54.732Z,87.38
2022-11-18T04:32:02.110Z,87.07
2022-11-18T04:42:09.313Z,87.26
2022-11-18T04:52:16.830Z,87.21
2022-11-18T05:02:24.319Z,87.07
2022-11-18T05:12:49.241Z,86.93
2022-11-18T05:22:56.609Z,87.10
2022-11-18T05:33:03.744Z,87.09
2022-11-18T05:43:14.524Z,86.65
2022-11-18T05:53:23.791Z,86.76
2022-11-18T06:03:36.265Z,86.76
2022-11-18T06:13:50.746Z,86.76
2022-11-18T06:23:58.510Z,86.61
2022-11-18T06:34:04.270Z,86.68
2022-11-18T06:44:13.329Z,86.16
2022-11-18T06:54:21.016Z,86.31
2022-11-18T07:04:28.353Z,86.09
2022-11-18T07:14:35.708Z,85.57
2022-11-18T07:24:43.692Z,85.85
2022-11-18T07:34:50.788Z,85.40
2022-11-18T07:44:57.833Z,84.96
2022-11-18T07:55:05.000Z,84.64
2022-11-18T08:05:14.670Z,84.52
2022-11-18T08:15:25.232Z,84.03
2022-11-18T08:25:32.389Z,83.67
2022-11-18T08:35:39.754Z,83.60
2022-11-18T08:55:57.295Z,83.02
2022-11-18T09:06:07.795Z,82.20
2022-11-18T09:16:15.613Z,81.73
2022-11-18T09:26:41.731Z,81.19
2022-11-18T09:36:48.965Z,80.70
2022-11-18T09:46:57.679Z,80.26
2022-11-18T09:57:12.054Z,79.88
2022-11-18T10:07:23.805Z,79.24
2022-11-18T10:17:33.991Z,79.19
2022-11-18T10:27:44.781Z,79.54
2022-11-18T10:38:07.958Z,79.35
2022-11-18T10:48:17.757Z,78.98
2022-11-18T10:58:26.146Z,78.86
2022-11-18T11:08:37.470Z,78.75
2022-11-18T11:18:57.523Z,78.39
2022-11-18T11:29:02.683Z,78.94
2022-11-18T11:39:15.224Z,78.48
2022-11-18T11:49:31.027Z,78.15
2022-11-18T11:59:38.690Z,78.47
2022-11-18T12:09:47.337Z,78.00
2022-11-18T12:19:54.413Z,78.13
2022-11-18T12:30:04.172Z,78.26
2022-11-18T12:40:12.184Z,77.95
2022-11-18T12:50:19.849Z,77.96
2022-11-18T13:00:53.100Z,78.01
2022-11-18T13:11:23.178Z,78.15
2022-11-18T13:21:49.858Z,78.33
2022-11-18T13:31:58.618Z,78.60
2022-11-18T13:42:06.614Z,78.77
2022-11-18T13:52:12.848Z,78.45
2022-11-18T14:02:20.734Z,78.53
2022-11-18T14:22:51.236Z,78.81
2022-11-18T14:33:15.201Z,78.55
2022-11-18T14:43:22.314Z,78.83
2022-11-18T14:53:29.730Z,78.14
2022-11-18T15:03:36.147Z,77.36
2022-11-18T15:13:44.226Z,77.31
2022-11-18T15:23:52.039Z,77.23
2022-11-18T15:34:05.099Z,77.54
2022-11-18T15:44:14.173Z,76.94
2022-11-18T15:54:20.557Z,76.62
2022-11-18T16:14:36.966Z,76.30
2022-11-18T16:24:48.192Z,75.73
2022-11-18T16:35:00.013Z,76.15
2022-11-18T16:45:09.914Z,75.99
2022-11-18T16:55:18.462Z,75.95
2022-11-18T17:05:25.644Z,75.91
2022-11-18T17:15:32.639Z,75.82
2022-11-18T17:25:39.055Z,75.53
2022-11-18T17:35:46.245Z,75.55
2022-11-18T17:45:51.517Z,75.48
2022-11-18T17:56:03.735Z,75.87
2022-11-18T18:06:09.250Z,75.71
2022-11-18T18:16:16.777Z,75.76
2022-11-18T18:26:30.951Z,76.07
2022-11-18T18:36:39.477Z,76.20
2022-11-18T18:46:45.336Z,76.26
2022-11-18T18:56:52.617Z,76.14
2022-11-18T19:07:00.598Z,76.14
2022-11-18T19:17:11.358Z,76.03
2022-11-18T19:27:19.172Z,76.28
2022-11-18T19:37:25.401Z,76.39
2022-11-18T19:47:31.835Z,76.48
2022-11-18T19:57:39.247Z,76.25
2022-11-18T20:07:46.356Z,76.27
2022-11-18T20:17:53.436Z,76.72
2022-11-18T20:28:00.528Z,76.49
2022-11-18T20:38:07.764Z,76.66
2022-11-18T20:48:14.315Z,76.38
2022-11-18T20:58:21.628Z,76.81
2022-11-18T21:08:29.114Z,76.91
2022-11-18T21:18:36.393Z,77.04
2022-11-18T21:28:43.527Z,76.91
2022-11-18T21:38:51.271Z,77.03
2022-11-18T21:49:00.356Z,77.46
2022-11-18T21:59:05.293Z,77.69
2022-11-18T22:09:12.501Z,77.79
2022-11-18T22:19:19.943Z,77.99
2022-11-18T22:29:27.851Z,78.22
2022-11-18T22:39:34.859Z,78.34
2022-11-18T22:49:41.901Z,78.38
2022-11-18T22:59:49.488Z,78.50
2022-11-18T23:09:56.561Z,78.70
2022-11-18T23:20:03.964Z,78.80
2022-11-18T23:30:12.687Z,78.81
2022-11-18T23:40:20.644Z,78.99
2022-11-18T23:50:27.850Z,79.08
